sensor_id;sensor_type;location;lat;lon;timestamp;P1;durP1;ratioP1;P2;durP2;ratioP2
26620;SDS011;14253;44.840;10.444;2022-07-06T00:01:42;10.75;;;3.20;;
26620;SDS011;14253;44.840;10.444;2022-07-06T00:04:08;7.75;;;3.15;;
26620;SDS011;14253;44.840;10.444;2022-07-06T00:06:35;10.18;;;3.50;;
26620;SDS011;14253;44.840;10.444;2022-07-06T00:09:01;9.32;;;3.65;;
26620;SDS011;14253;44.840;10.444;2022-07-06T00:11:30;10.38;;;3.20;;
26620;SDS011;14253;44.840;10.444;2022-07-06T00:13:56;8.80;;;3.60;;
26620;SDS011;14253;44.840;10.444;2022-07-06T00:16:22;9.40;;;3.17;;
26620;SDS011;14253;44.840;10.444;2022-07-06T00:18:48;5.43;;;3.15;;
26620;SDS011;14253;44.840;10.444;2022-07-06T00:21:15;7.88;;;3.10;;
26620;SDS011;14253;44.840;10.444;2022-07-06T00:23:41;5.63;;;3.05;;
26620;SDS011;14253;44.840;10.444;2022-07-06T00:26:07;10.40;;;3.50;;
26620;SDS011;14253;44.840;10.444;2022-07-06T00:28:33;6.63;;;3.58;;
26620;SDS011;14253;44.840;10.444;2022-07-06T00:31:00;8.27;;;3.63;;
26620;SDS011;14253;44.840;10.444;2022-07-06T00:33:26;8.63;;;3.03;;
26620;SDS011;14253;44.840;10.444;2022-07-06T00:35:52;8.52;;;3.53;;
26620;SDS011;14253;44.840;10.444;2022-07-06T00:38:19;7.72;;;2.72;;
26620;SDS011;14253;44.840;10.444;2022-07-06T00:40:45;10.60;;;3.15;;
26620;SDS011;14253;44.840;10.444;2022-07-06T00:43:11;7.40;;;2.97;;
26620;SDS011;14253;44.840;10.444;2022-07-06T00:45:37;7.72;;;2.95;;
26620;SDS011;14253;44.840;10.444;2022-07-06T00:48:03;4.70;;;2.40;;
26620;SDS011;14253;44.840;10.444;2022-07-06T00:50:29;11.80;;;2.70;;
26620;SDS011;14253;44.840;10.444;2022-07-06T00:52:57;8.13;;;2.95;;
26620;SDS011;14253;44.840;10.444;2022-07-06T00:55:27;6.10;;;2.38;;
26620;SDS011;14253;44.840;10.444;2022-07-06T00:57:55;7.10;;;2.80;;
26620;SDS011;14253;44.840;10.444;2022-07-06T01:00:22;5.85;;;2.17;;
26620;SDS011;14253;44.840;10.444;2022-07-06T01:02:50;6.68;;;2.20;;
26620;SDS011;14253;44.840;10.444;2022-07-06T01:05:17;8.07;;;2.45;;
26620;SDS011;14253;44.840;10.444;2022-07-06T01:07:44;5.90;;;2.20;;
26620;SDS011;14253;44.840;10.444;2022-07-06T01:10:12;6.68;;;2.10;;
26620;SDS011;14253;44.840;10.444;2022-07-06T01:12:40;6.30;;;2.38;;
26620;SDS011;14253;44.840;10.444;2022-07-06T01:15:15;8.23;;;1.92;;
26620;SDS011;14253;44.840;10.444;2022-07-06T01:17:43;4.97;;;1.80;;
26620;SDS011;14253;44.840;10.444;2022-07-06T01:22:36;3.90;;;1.50;;
26620;SDS011;14253;44.840;10.444;2022-07-06T01:25:02;3.35;;;1.48;;
26620;SDS011;14253;44.840;10.444;2022-07-06T01:27:29;4.68;;;1.95;;
26620;SDS011;14253;44.840;10.444;2022-07-06T01:29:55;9.57;;;1.73;;
26620;SDS011;14253;44.840;10.444;2022-07-06T01:32:21;5.93;;;2.10;;
26620;SDS011;14253;44.840;10.444;2022-07-06T01:34:47;5.68;;;1.90;;
26620;SDS011;14253;44.840;10.444;2022-07-06T01:37:13;5.32;;;1.65;;
26620;SDS011;14253;44.840;10.444;2022-07-06T01:39:39;7.45;;;2.22;;
26620;SDS011;14253;44.840;10.444;2022-07-06T01:42:05;5.13;;;1.60;;
26620;SDS011;14253;44.840;10.444;2022-07-06T01:44:31;5.18;;;1.35;;
26620;SDS011;14253;44.840;10.444;2022-07-06T01:46:58;6.95;;;1.90;;
26620;SDS011;14253;44.840;10.444;2022-07-06T01:49:24;4.65;;;1.50;;
26620;SDS011;14253;44.840;10.444;2022-07-06T01:51:51;3.67;;;1.80;;
26620;SDS011;14253;44.840;10.444;2022-07-06T01:54:17;5.57;;;1.55;;
26620;SDS011;14253;44.840;10.444;2022-07-06T01:56:43;3.05;;;1.05;;
26620;SDS011;14253;44.840;10.444;2022-07-06T01:59:09;5.78;;;1.67;;
26620;SDS011;14253;44.840;10.444;2022-07-06T02:01:36;4.38;;;1.50;;
26620;SDS011;14253;44.840;10.444;2022-07-06T02:04:02;4.55;;;1.63;;
26620;SDS011;14253;44.840;10.444;2022-07-06T02:06:28;5.55;;;1.58;;
26620;SDS011;14253;44.840;10.444;2022-07-06T02:08:54;4.40;;;1.70;;
26620;SDS011;14253;44.840;10.444;2022-07-06T02:11:20;2.80;;;1.35;;
26620;SDS011;14253;44.840;10.444;2022-07-06T02:13:46;2.90;;;1.15;;
26620;SDS011;14253;44.840;10.444;2022-07-06T02:16:12;4.80;;;1.65;;
26620;SDS011;14253;44.840;10.444;2022-07-06T02:18:39;2.83;;;1.00;;
26620;SDS011;14253;44.840;10.444;2022-07-06T02:21:06;6.07;;;1.42;;
26620;SDS011;14253;44.840;10.444;2022-07-06T02:23:32;4.25;;;1.20;;
26620;SDS011;14253;44.840;10.444;2022-07-06T02:25:58;2.30;;;1.17;;
26620;SDS011;14253;44.840;10.444;2022-07-06T02:28:25;6.18;;;1.85;;
26620;SDS011;14253;44.840;10.444;2022-07-06T02:30:51;2.60;;;1.10;;
26620;SDS011;14253;44.840;10.444;2022-07-06T02:33:17;8.70;;;1.55;;
26620;SDS011;14253;44.840;10.444;2022-07-06T02:35:44;4.93;;;1.40;;
26620;SDS011;14253;44.840;10.444;2022-07-06T02:38:11;4.45;;;1.52;;
26620;SDS011;14253;44.840;10.444;2022-07-06T02:40:37;4.97;;;1.35;;
26620;SDS011;14253;44.840;10.444;2022-07-06T02:43:04;4.90;;;1.77;;
26620;SDS011;14253;44.840;10.444;2022-07-06T02:45:31;3.75;;;1.40;;
26620;SDS011;14253;44.840;10.444;2022-07-06T02:47:57;3.97;;;1.27;;
26620;SDS011;14253;44.840;10.444;2022-07-06T02:50:24;2.25;;;1.48;;
26620;SDS011;14253;44.840;10.444;2022-07-06T02:52:52;4.22;;;1.63;;
26620;SDS011;14253;44.840;10.444;2022-07-06T02:55:19;1.98;;;1.40;;
26620;SDS011;14253;44.840;10.444;2022-07-06T02:57:45;5.05;;;1.40;;
26620;SDS011;14253;44.840;10.444;2022-07-06T03:00:12;2.08;;;1.60;;
26620;SDS011;14253;44.840;10.444;2022-07-06T03:02:39;3.65;;;1.38;;
26620;SDS011;14253;44.840;10.444;2022-07-06T03:05:07;2.75;;;1.65;;
26620;SDS011;14253;44.840;10.444;2022-07-06T03:07:33;7.80;;;1.60;;
26620;SDS011;14253;44.840;10.444;2022-07-06T03:10:00;3.63;;;1.70;;
26620;SDS011;14253;44.840;10.444;2022-07-06T03:12:27;3.17;;;1.30;;
26620;SDS011;14253;44.840;10.444;2022-07-06T03:14:53;2.40;;;1.35;;
26620;SDS011;14253;44.840;10.444;2022-07-06T03:17:19;3.15;;;1.50;;
26620;SDS011;14253;44.840;10.444;2022-07-06T03:19:47;2.67;;;1.90;;
26620;SDS011;14253;44.840;10.444;2022-07-06T03:22:13;4.25;;;1.55;;
26620;SDS011;14253;44.840;10.444;2022-07-06T03:24:40;5.32;;;1.20;;
26620;SDS011;14253;44.840;10.444;2022-07-06T03:27:07;3.25;;;1.42;;
26620;SDS011;14253;44.840;10.444;2022-07-06T03:29:37;5.03;;;1.73;;
26620;SDS011;14253;44.840;10.444;2022-07-06T03:32:23;4.25;;;1.33;;
26620;SDS011;14253;44.840;10.444;2022-07-06T03:35:10;3.38;;;1.17;;
26620;SDS011;14253;44.840;10.444;2022-07-06T03:38:20;6.18;;;1.20;;
26620;SDS011;14253;44.840;10.444;2022-07-06T03:41:09;3.15;;;0.90;;
26620;SDS011;14253;44.840;10.444;2022-07-06T03:43:57;4.50;;;1.10;;
26620;SDS011;14253;44.840;10.444;2022-07-06T03:46:44;5.93;;;1.50;;
26620;SDS011;14253;44.840;10.444;2022-07-06T03:49:31;3.95;;;1.30;;
26620;SDS011;14253;44.840;10.444;2022-07-06T03:52:13;3.05;;;1.10;;
26620;SDS011;14253;44.840;10.444;2022-07-06T03:57:17;2.65;;;1.20;;
26620;SDS011;14253;44.840;10.444;2022-07-06T03:59:43;2.85;;;1.73;;
26620;SDS011;14253;44.840;10.444;2022-07-06T04:02:09;3.90;;;1.35;;
26620;SDS011;14253;44.840;10.444;2022-07-06T04:04:36;3.95;;;1.20;;
26620;SDS011;14253;44.840;10.444;2022-07-06T04:07:03;3.50;;;1.00;;
26620;SDS011;14253;44.840;10.444;2022-07-06T04:09:31;4.30;;;1.02;;
26620;SDS011;14253;44.840;10.444;2022-07-06T04:11:57;1.50;;;1.00;;
26620;SDS011;14253;44.840;10.444;2022-07-06T04:14:24;2.45;;;1.00;;
26620;SDS011;14253;44.840;10.444;2022-07-06T04:16:52;2.72;;;1.00;;
26620;SDS011;14253;44.840;10.444;2022-07-06T04:19:19;3.80;;;1.08;;
26620;SDS011;14253;44.840;10.444;2022-07-06T04:21:45;3.83;;;1.20;;
26620;SDS011;14253;44.840;10.444;2022-07-06T04:24:13;12.32;;;1.58;;
26620;SDS011;14253;44.840;10.444;2022-07-06T04:26:39;6.45;;;1.30;;
26620;SDS011;14253;44.840;10.444;2022-07-06T04:29:05;4.72;;;0.95;;
26620;SDS011;14253;44.840;10.444;2022-07-06T04:31:33;4.40;;;1.10;;
26620;SDS011;14253;44.840;10.444;2022-07-06T04:33:59;2.72;;;1.20;;
26620;SDS011;14253;44.840;10.444;2022-07-06T04:36:25;4.65;;;1.20;;
26620;SDS011;14253;44.840;10.444;2022-07-06T04:38:53;3.55;;;1.10;;
26620;SDS011;14253;44.840;10.444;2022-07-06T04:41:20;5.22;;;1.40;;
26620;SDS011;14253;44.840;10.444;2022-07-06T04:43:48;3.33;;;1.15;;
26620;SDS011;14253;44.840;10.444;2022-07-06T04:46:18;3.45;;;1.30;;
26620;SDS011;14253;44.840;10.444;2022-07-06T04:48:51;3.17;;;1.05;;
26620;SDS011;14253;44.840;10.444;2022-07-06T04:51:22;6.18;;;1.27;;
26620;SDS011;14253;44.840;10.444;2022-07-06T04:53:48;2.60;;;1.10;;
26620;SDS011;14253;44.840;10.444;2022-07-06T04:56:15;3.10;;;0.70;;
26620;SDS011;14253;44.840;10.444;2022-07-06T04:58:41;2.70;;;1.15;;
26620;SDS011;14253;44.840;10.444;2022-07-06T05:01:11;4.80;;;1.00;;
26620;SDS011;14253;44.840;10.444;2022-07-06T05:03:37;1.80;;;1.00;;
26620;SDS011;14253;44.840;10.444;2022-07-06T05:06:07;11.10;;;1.52;;
26620;SDS011;14253;44.840;10.444;2022-07-06T05:08:33;2.55;;;1.08;;
26620;SDS011;14253;44.840;10.444;2022-07-06T05:11:00;2.92;;;1.10;;
26620;SDS011;14253;44.840;10.444;2022-07-06T05:13:26;2.55;;;1.10;;
26620;SDS011;14253;44.840;10.444;2022-07-06T05:15:53;2.33;;;1.20;;
26620;SDS011;14253;44.840;10.444;2022-07-06T05:18:19;4.45;;;1.00;;
26620;SDS011;14253;44.840;10.444;2022-07-06T05:20:46;3.78;;;1.10;;
26620;SDS011;14253;44.840;10.444;2022-07-06T05:23:13;4.97;;;0.98;;
26620;SDS011;14253;44.840;10.444;2022-07-06T05:25:39;2.78;;;0.90;;
26620;SDS011;14253;44.840;10.444;2022-07-06T05:28:05;3.15;;;1.02;;
26620;SDS011;14253;44.840;10.444;2022-07-06T05:30:31;4.18;;;1.05;;
26620;SDS011;14253;44.840;10.444;2022-07-06T05:32:57;1.70;;;0.75;;
26620;SDS011;14253;44.840;10.444;2022-07-06T05:35:23;4.70;;;0.90;;
26620;SDS011;14253;44.840;10.444;2022-07-06T05:37:49;5.80;;;1.20;;
26620;SDS011;14253;44.840;10.444;2022-07-06T05:40:16;4.63;;;0.98;;
26620;SDS011;14253;44.840;10.444;2022-07-06T05:42:42;2.25;;;1.15;;
26620;SDS011;14253;44.840;10.444;2022-07-06T05:45:08;4.05;;;1.35;;
26620;SDS011;14253;44.840;10.444;2022-07-06T05:47:34;2.67;;;1.10;;
26620;SDS011;14253;44.840;10.444;2022-07-06T05:50:19;3.17;;;0.93;;
26620;SDS011;14253;44.840;10.444;2022-07-06T05:52:59;6.90;;;1.00;;
26620;SDS011;14253;44.840;10.444;2022-07-06T05:55:28;3.45;;;1.00;;
26620;SDS011;14253;44.840;10.444;2022-07-06T05:57:56;8.65;;;1.17;;
26620;SDS011;14253;44.840;10.444;2022-07-06T06:00:24;2.22;;;0.80;;
26620;SDS011;14253;44.840;10.444;2022-07-06T06:02:54;6.82;;;1.38;;
26620;SDS011;14253;44.840;10.444;2022-07-06T06:05:21;11.23;;;1.27;;
26620;SDS011;14253;44.840;10.444;2022-07-06T06:07:49;3.45;;;1.20;;
26620;SDS011;14253;44.840;10.444;2022-07-06T06:10:22;4.93;;;1.42;;
26620;SDS011;14253;44.840;10.444;2022-07-06T06:12:51;1.35;;;0.80;;
26620;SDS011;14253;44.840;10.444;2022-07-06T06:15:17;7.05;;;1.60;;
26620;SDS011;14253;44.840;10.444;2022-07-06T06:17:43;6.30;;;1.27;;
26620;SDS011;14253;44.840;10.444;2022-07-06T06:20:10;3.10;;;0.60;;
26620;SDS011;14253;44.840;10.444;2022-07-06T06:22:45;2.80;;;0.63;;
26620;SDS011;14253;44.840;10.444;2022-07-06T06:25:26;5.68;;;1.40;;
26620;SDS011;14253;44.840;10.444;2022-07-06T06:27:53;2.03;;;1.25;;
26620;SDS011;14253;44.840;10.444;2022-07-06T06:30:19;2.40;;;1.13;;
26620;SDS011;14253;44.840;10.444;2022-07-06T06:32:45;3.15;;;0.65;;
26620;SDS011;14253;44.840;10.444;2022-07-06T06:35:11;4.13;;;1.00;;
26620;SDS011;14253;44.840;10.444;2022-07-06T06:37:37;2.85;;;1.10;;
26620;SDS011;14253;44.840;10.444;2022-07-06T06:40:04;3.80;;;1.10;;
26620;SDS011;14253;44.840;10.444;2022-07-06T06:42:30;4.57;;;1.00;;
26620;SDS011;14253;44.840;10.444;2022-07-06T06:44:58;5.10;;;0.90;;
26620;SDS011;14253;44.840;10.444;2022-07-06T06:47:24;2.60;;;0.80;;
26620;SDS011;14253;44.840;10.444;2022-07-06T06:49:50;3.00;;;0.90;;
26620;SDS011;14253;44.840;10.444;2022-07-06T06:52:16;1.08;;;0.68;;
26620;SDS011;14253;44.840;10.444;2022-07-06T06:54:42;1.92;;;0.90;;
26620;SDS011;14253;44.840;10.444;2022-07-06T06:57:08;6.28;;;1.63;;
26620;SDS011;14253;44.840;10.444;2022-07-06T06:59:34;2.85;;;0.98;;
26620;SDS011;14253;44.840;10.444;2022-07-06T07:02:00;5.60;;;1.00;;
26620;SDS011;14253;44.840;10.444;2022-07-06T07:04:26;4.60;;;1.13;;
26620;SDS011;14253;44.840;10.444;2022-07-06T07:06:52;5.63;;;1.30;;
26620;SDS011;14253;44.840;10.444;2022-07-06T07:09:18;4.90;;;1.20;;
26620;SDS011;14253;44.840;10.444;2022-07-06T07:11:43;3.03;;;1.58;;
26620;SDS011;14253;44.840;10.444;2022-07-06T07:14:09;4.80;;;1.20;;
26620;SDS011;14253;44.840;10.444;2022-07-06T07:16:36;5.53;;;1.50;;
26620;SDS011;14253;44.840;10.444;2022-07-06T07:19:02;7.55;;;1.58;;
26620;SDS011;14253;44.840;10.444;2022-07-06T07:21:27;5.50;;;1.30;;
26620;SDS011;14253;44.840;10.444;2022-07-06T07:23:53;2.42;;;1.23;;
26620;SDS011;14253;44.840;10.444;2022-07-06T07:26:19;3.67;;;1.30;;
26620;SDS011;14253;44.840;10.444;2022-07-06T07:28:45;9.15;;;1.35;;
26620;SDS011;14253;44.840;10.444;2022-07-06T07:31:12;6.20;;;1.65;;
26620;SDS011;14253;44.840;10.444;2022-07-06T07:33:37;7.32;;;1.40;;
26620;SDS011;14253;44.840;10.444;2022-07-06T07:36:04;5.38;;;1.30;;
26620;SDS011;14253;44.840;10.444;2022-07-06T07:38:30;5.55;;;1.45;;
26620;SDS011;14253;44.840;10.444;2022-07-06T07:40:56;2.58;;;1.25;;
26620;SDS011;14253;44.840;10.444;2022-07-06T07:43:22;3.58;;;1.20;;
26620;SDS011;14253;44.840;10.444;2022-07-06T07:45:48;4.63;;;1.33;;
26620;SDS011;14253;44.840;10.444;2022-07-06T07:48:14;4.00;;;1.95;;
26620;SDS011;14253;44.840;10.444;2022-07-06T07:50:40;9.85;;;1.60;;
26620;SDS011;14253;44.840;10.444;2022-07-06T07:53:07;2.78;;;1.20;;
26620;SDS011;14253;44.840;10.444;2022-07-06T07:55:33;4.78;;;1.27;;
26620;SDS011;14253;44.840;10.444;2022-07-06T07:57:59;3.92;;;1.50;;
26620;SDS011;14253;44.840;10.444;2022-07-06T08:00:25;4.28;;;1.67;;
26620;SDS011;14253;44.840;10.444;2022-07-06T08:02:52;13.93;;;2.30;;
26620;SDS011;14253;44.840;10.444;2022-07-06T08:05:20;6.28;;;1.25;;
26620;SDS011;14253;44.840;10.444;2022-07-06T08:07:46;5.80;;;1.20;;
26620;SDS011;14253;44.840;10.444;2022-07-06T08:10:12;4.45;;;1.10;;
26620;SDS011;14253;44.840;10.444;2022-07-06T08:12:38;6.78;;;1.35;;
26620;SDS011;14253;44.840;10.444;2022-07-06T08:15:04;2.58;;;1.15;;
26620;SDS011;14253;44.840;10.444;2022-07-06T08:17:31;4.28;;;1.40;;
26620;SDS011;14253;44.840;10.444;2022-07-06T08:19:57;4.60;;;1.60;;
26620;SDS011;14253;44.840;10.444;2022-07-06T08:22:23;8.45;;;1.75;;
26620;SDS011;14253;44.840;10.444;2022-07-06T08:24:50;5.80;;;1.77;;
26620;SDS011;14253;44.840;10.444;2022-07-06T08:27:16;4.55;;;1.20;;
26620;SDS011;14253;44.840;10.444;2022-07-06T08:29:42;4.22;;;1.67;;
26620;SDS011;14253;44.840;10.444;2022-07-06T08:32:08;3.70;;;1.10;;
26620;SDS011;14253;44.840;10.444;2022-07-06T08:34:34;2.88;;;1.35;;
26620;SDS011;14253;44.840;10.444;2022-07-06T08:37:00;2.60;;;1.30;;
26620;SDS011;14253;44.840;10.444;2022-07-06T08:39:26;5.95;;;1.50;;
26620;SDS011;14253;44.840;10.444;2022-07-06T08:41:52;4.20;;;1.00;;
26620;SDS011;14253;44.840;10.444;2022-07-06T08:44:20;3.40;;;1.35;;
26620;SDS011;14253;44.840;10.444;2022-07-06T08:46:46;6.43;;;1.50;;
26620;SDS011;14253;44.840;10.444;2022-07-06T08:49:17;3.83;;;1.20;;
26620;SDS011;14253;44.840;10.444;2022-07-06T08:51:45;2.97;;;1.13;;
26620;SDS011;14253;44.840;10.444;2022-07-06T08:54:12;2.38;;;1.10;;
26620;SDS011;14253;44.840;10.444;2022-07-06T08:56:39;2.60;;;1.40;;
26620;SDS011;14253;44.840;10.444;2022-07-06T08:59:06;7.13;;;1.23;;
26620;SDS011;14253;44.840;10.444;2022-07-06T09:01:35;2.75;;;1.23;;
26620;SDS011;14253;44.840;10.444;2022-07-06T09:04:02;2.40;;;1.23;;
26620;SDS011;14253;44.840;10.444;2022-07-06T09:06:33;2.03;;;0.90;;
26620;SDS011;14253;44.840;10.444;2022-07-06T09:09:00;3.35;;;1.00;;
26620;SDS011;14253;44.840;10.444;2022-07-06T09:11:30;2.40;;;1.20;;
26620;SDS011;14253;44.840;10.444;2022-07-06T09:13:56;3.22;;;1.20;;
26620;SDS011;14253;44.840;10.444;2022-07-06T09:16:26;4.90;;;0.85;;
26620;SDS011;14253;44.840;10.444;2022-07-06T09:18:54;4.70;;;1.00;;
26620;SDS011;14253;44.840;10.444;2022-07-06T09:21:29;4.97;;;1.00;;
26620;SDS011;14253;44.840;10.444;2022-07-06T09:23:58;3.85;;;1.17;;
26620;SDS011;14253;44.840;10.444;2022-07-06T09:26:25;2.25;;;0.85;;
26620;SDS011;14253;44.840;10.444;2022-07-06T09:28:52;1.77;;;0.98;;
26620;SDS011;14253;44.840;10.444;2022-07-06T09:31:20;3.75;;;1.20;;
26620;SDS011;14253;44.840;10.444;2022-07-06T09:33:56;6.18;;;1.60;;
26620;SDS011;14253;44.840;10.444;2022-07-06T09:36:44;3.00;;;1.60;;
26620;SDS011;14253;44.840;10.444;2022-07-06T09:39:15;2.35;;;1.00;;
26620;SDS011;14253;44.840;10.444;2022-07-06T09:41:47;5.03;;;1.33;;
26620;SDS011;14253;44.840;10.444;2022-07-06T09:44:34;3.50;;;0.93;;
26620;SDS011;14253;44.840;10.444;2022-07-06T09:47:03;2.97;;;0.95;;
26620;SDS011;14253;44.840;10.444;2022-07-06T09:49:31;5.18;;;1.20;;
26620;SDS011;14253;44.840;10.444;2022-07-06T09:51:58;1.13;;;0.90;;
26620;SDS011;14253;44.840;10.444;2022-07-06T09:54:26;4.20;;;1.27;;
26620;SDS011;14253;44.840;10.444;2022-07-06T09:56:53;4.35;;;1.48;;
26620;SDS011;14253;44.840;10.444;2022-07-06T09:59:27;2.88;;;1.10;;
26620;SDS011;14253;44.840;10.444;2022-07-06T10:01:54;6.15;;;1.83;;
26620;SDS011;14253;44.840;10.444;2022-07-06T10:04:26;5.25;;;1.40;;
26620;SDS011;14253;44.840;10.444;2022-07-06T10:06:53;4.78;;;1.38;;
26620;SDS011;14253;44.840;10.444;2022-07-06T10:09:21;2.53;;;0.98;;
26620;SDS011;14253;44.840;10.444;2022-07-06T10:11:51;2.97;;;1.02;;
26620;SDS011;14253;44.840;10.444;2022-07-06T10:14:22;4.35;;;1.50;;
26620;SDS011;14253;44.840;10.444;2022-07-06T10:16:50;4.07;;;1.30;;
26620;SDS011;14253;44.840;10.444;2022-07-06T10:19:17;3.67;;;1.27;;
26620;SDS011;14253;44.840;10.444;2022-07-06T10:21:44;3.67;;;1.33;;
26620;SDS011;14253;44.840;10.444;2022-07-06T10:24:11;3.38;;;1.33;;
26620;SDS011;14253;44.840;10.444;2022-07-06T10:26:38;6.22;;;1.60;;
26620;SDS011;14253;44.840;10.444;2022-07-06T10:29:05;3.65;;;1.30;;
26620;SDS011;14253;44.840;10.444;2022-07-06T10:31:33;3.55;;;1.15;;
26620;SDS011;14253;44.840;10.444;2022-07-06T10:34:02;4.78;;;1.40;;
26620;SDS011;14253;44.840;10.444;2022-07-06T10:36:30;5.82;;;1.42;;
26620;SDS011;14253;44.840;10.444;2022-07-06T10:38:56;5.65;;;1.40;;
26620;SDS011;14253;44.840;10.444;2022-07-06T10:41:32;3.10;;;1.40;;
26620;SDS011;14253;44.840;10.444;2022-07-06T10:47:10;5.45;;;1.55;;
26620;SDS011;14253;44.840;10.444;2022-07-06T10:49:35;6.90;;;1.40;;
26620;SDS011;14253;44.840;10.444;2022-07-06T10:52:17;5.35;;;2.03;;
26620;SDS011;14253;44.840;10.444;2022-07-06T10:54:43;5.53;;;1.50;;
26620;SDS011;14253;44.840;10.444;2022-07-06T10:57:09;3.97;;;1.45;;
26620;SDS011;14253;44.840;10.444;2022-07-06T10:59:40;3.70;;;1.70;;
26620;SDS011;14253;44.840;10.444;2022-07-06T11:02:16;4.75;;;1.70;;
26620;SDS011;14253;44.840;10.444;2022-07-06T11:04:44;4.45;;;1.65;;
26620;SDS011;14253;44.840;10.444;2022-07-06T11:07:13;4.10;;;1.50;;
26620;SDS011;14253;44.840;10.444;2022-07-06T11:09:40;8.27;;;1.90;;
26620;SDS011;14253;44.840;10.444;2022-07-06T11:12:19;3.63;;;1.40;;
26620;SDS011;14253;44.840;10.444;2022-07-06T11:14:49;3.53;;;1.52;;
26620;SDS011;14253;44.840;10.444;2022-07-06T11:17:17;3.63;;;1.42;;
26620;SDS011;14253;44.840;10.444;2022-07-06T11:19:50;4.90;;;1.58;;
26620;SDS011;14253;44.840;10.444;2022-07-06T11:22:22;3.03;;;1.30;;
26620;SDS011;14253;44.840;10.444;2022-07-06T11:24:49;2.97;;;1.15;;
26620;SDS011;14253;44.840;10.444;2022-07-06T11:27:22;6.40;;;1.60;;
26620;SDS011;14253;44.840;10.444;2022-07-06T11:29:48;4.07;;;1.42;;
26620;SDS011;14253;44.840;10.444;2022-07-06T11:32:14;2.45;;;1.35;;
26620;SDS011;14253;44.840;10.444;2022-07-06T11:34:41;5.70;;;1.55;;
26620;SDS011;14253;44.840;10.444;2022-07-06T11:37:10;5.97;;;1.80;;
26620;SDS011;14253;44.840;10.444;2022-07-06T11:39:38;4.22;;;1.48;;
26620;SDS011;14253;44.840;10.444;2022-07-06T11:42:06;3.50;;;1.30;;
26620;SDS011;14253;44.840;10.444;2022-07-06T11:44:33;3.67;;;1.60;;
26620;SDS011;14253;44.840;10.444;2022-07-06T11:47:00;3.45;;;1.40;;
26620;SDS011;14253;44.840;10.444;2022-07-06T11:49:28;8.75;;;1.92;;
26620;SDS011;14253;44.840;10.444;2022-07-06T11:51:59;3.28;;;1.40;;
26620;SDS011;14253;44.840;10.444;2022-07-06T11:54:26;5.60;;;1.55;;
26620;SDS011;14253;44.840;10.444;2022-07-06T11:56:56;3.10;;;1.38;;
26620;SDS011;14253;44.840;10.444;2022-07-06T11:59:30;4.75;;;1.50;;
26620;SDS011;14253;44.840;10.444;2022-07-06T12:02:05;4.75;;;1.65;;
26620;SDS011;14253;44.840;10.444;2022-07-06T12:04:40;4.20;;;1.20;;
26620;SDS011;14253;44.840;10.444;2022-07-06T12:07:08;5.97;;;1.55;;
26620;SDS011;14253;44.840;10.444;2022-07-06T12:09:40;2.53;;;1.40;;
26620;SDS011;14253;44.840;10.444;2022-07-06T12:12:09;4.45;;;1.23;;
26620;SDS011;14253;44.840;10.444;2022-07-06T12:14:37;4.47;;;1.33;;
26620;SDS011;14253;44.840;10.444;2022-07-06T12:17:08;2.83;;;1.35;;
26620;SDS011;14253;44.840;10.444;2022-07-06T12:19:35;4.85;;;1.30;;
26620;SDS011;14253;44.840;10.444;2022-07-06T12:22:02;3.72;;;1.58;;
26620;SDS011;14253;44.840;10.444;2022-07-06T12:24:30;5.03;;;1.60;;
26620;SDS011;14253;44.840;10.444;2022-07-06T12:26:57;3.72;;;1.27;;
26620;SDS011;14253;44.840;10.444;2022-07-06T12:29:34;2.30;;;1.17;;
26620;SDS011;14253;44.840;10.444;2022-07-06T12:32:00;3.40;;;1.27;;
26620;SDS011;14253;44.840;10.444;2022-07-06T12:34:27;6.22;;;1.75;;
26620;SDS011;14253;44.840;10.444;2022-07-06T12:37:05;2.80;;;1.60;;
26620;SDS011;14253;44.840;10.444;2022-07-06T12:39:39;3.58;;;1.13;;
26620;SDS011;14253;44.840;10.444;2022-07-06T12:42:12;3.65;;;1.00;;
26620;SDS011;14253;44.840;10.444;2022-07-06T12:44:44;3.42;;;1.40;;
26620;SDS011;14253;44.840;10.444;2022-07-06T12:47:18;4.25;;;2.05;;
26620;SDS011;14253;44.840;10.444;2022-07-06T12:49:46;6.00;;;1.70;;
26620;SDS011;14253;44.840;10.444;2022-07-06T12:52:13;4.32;;;1.73;;
26620;SDS011;14253;44.840;10.444;2022-07-06T12:54:47;2.30;;;1.30;;
26620;SDS011;14253;44.840;10.444;2022-07-06T12:57:22;3.95;;;1.63;;
26620;SDS011;14253;44.840;10.444;2022-07-06T13:02:32;6.50;;;1.73;;
26620;SDS011;14253;44.840;10.444;2022-07-06T13:07:33;6.65;;;1.35;;
26620;SDS011;14253;44.840;10.444;2022-07-06T13:10:01;4.15;;;1.70;;
26620;SDS011;14253;44.840;10.444;2022-07-06T13:12:30;6.75;;;1.67;;
26620;SDS011;14253;44.840;10.444;2022-07-06T13:14:56;4.22;;;1.50;;
26620;SDS011;14253;44.840;10.444;2022-07-06T13:17:22;2.47;;;1.48;;
26620;SDS011;14253;44.840;10.444;2022-07-06T13:19:48;3.28;;;1.30;;
26620;SDS011;14253;44.840;10.444;2022-07-06T13:22:14;3.28;;;1.50;;
26620;SDS011;14253;44.840;10.444;2022-07-06T13:24:40;5.53;;;1.73;;
26620;SDS011;14253;44.840;10.444;2022-07-06T13:27:07;3.95;;;1.30;;
26620;SDS011;14253;44.840;10.444;2022-07-06T13:29:35;4.93;;;1.20;;
26620;SDS011;14253;44.840;10.444;2022-07-06T13:32:02;3.35;;;1.38;;
26620;SDS011;14253;44.840;10.444;2022-07-06T13:34:28;4.65;;;1.65;;
26620;SDS011;14253;44.840;10.444;2022-07-06T13:36:54;3.10;;;1.30;;
26620;SDS011;14253;44.840;10.444;2022-07-06T13:39:20;2.97;;;1.30;;
26620;SDS011;14253;44.840;10.444;2022-07-06T13:41:46;2.33;;;1.38;;
26620;SDS011;14253;44.840;10.444;2022-07-06T13:44:12;3.58;;;1.27;;
26620;SDS011;14253;44.840;10.444;2022-07-06T13:46:38;2.22;;;1.55;;
26620;SDS011;14253;44.840;10.444;2022-07-06T13:49:05;2.42;;;1.60;;
26620;SDS011;14253;44.840;10.444;2022-07-06T13:51:31;3.25;;;1.20;;
26620;SDS011;14253;44.840;10.444;2022-07-06T13:53:58;5.47;;;1.70;;
26620;SDS011;14253;44.840;10.444;2022-07-06T13:56:24;2.67;;;1.40;;
26620;SDS011;14253;44.840;10.444;2022-07-06T13:58:51;2.95;;;1.38;;
26620;SDS011;14253;44.840;10.444;2022-07-06T14:01:17;3.88;;;2.00;;
26620;SDS011;14253;44.840;10.444;2022-07-06T14:03:44;4.25;;;1.45;;
26620;SDS011;14253;44.840;10.444;2022-07-06T14:06:10;4.30;;;1.38;;
26620;SDS011;14253;44.840;10.444;2022-07-06T14:08:37;5.82;;;2.05;;
26620;SDS011;14253;44.840;10.444;2022-07-06T14:11:04;3.38;;;1.30;;
26620;SDS011;14253;44.840;10.444;2022-07-06T14:13:33;6.03;;;1.48;;
26620;SDS011;14253;44.840;10.444;2022-07-06T14:15:59;6.25;;;1.67;;
26620;SDS011;14253;44.840;10.444;2022-07-06T14:18:25;6.68;;;1.70;;
26620;SDS011;14253;44.840;10.444;2022-07-06T14:20:52;3.35;;;1.30;;
26620;SDS011;14253;44.840;10.444;2022-07-06T14:23:20;5.65;;;1.80;;
26620;SDS011;14253;44.840;10.444;2022-07-06T14:25:47;5.55;;;1.60;;
26620;SDS011;14253;44.840;10.444;2022-07-06T14:28:14;3.78;;;1.30;;
26620;SDS011;14253;44.840;10.444;2022-07-06T14:30:42;3.85;;;1.52;;
26620;SDS011;14253;44.840;10.444;2022-07-06T14:33:10;7.38;;;1.67;;
26620;SDS011;14253;44.840;10.444;2022-07-06T14:35:38;7.18;;;1.80;;
26620;SDS011;14253;44.840;10.444;2022-07-06T14:38:15;4.60;;;1.38;;
26620;SDS011;14253;44.840;10.444;2022-07-06T14:40:42;4.75;;;1.55;;
26620;SDS011;14253;44.840;10.444;2022-07-06T14:43:09;2.85;;;1.55;;
26620;SDS011;14253;44.840;10.444;2022-07-06T14:45:35;3.63;;;1.40;;
26620;SDS011;14253;44.840;10.444;2022-07-06T14:48:02;4.75;;;1.52;;
26620;SDS011;14253;44.840;10.444;2022-07-06T14:50:30;3.50;;;1.38;;
26620;SDS011;14253;44.840;10.444;2022-07-06T14:52:57;5.30;;;1.83;;